Time;durP1;ratioP1;P1;durP2;ratioP2;P2;SDS_P1;SDS_P2;PMS_P1;PMS_P2;Temp;Humidity;BMP_temperature;BMP_pressure;BME280_temperature;BME280_humidity;BME280_pressure;Samples;Min_cycle;Max_cycle;Signal;HPM_P1;HPM_P2
2023/12/23 00:00:51;;;;;;;6.83;2.07;;;7.10;99.90;;;;;;5039598;28;21260;-79
2023/12/23 00:03:17;;;;;;;8.47;2.03;;;7.10;99.90;;;;;;5040056;28;20999;-78
2023/12/23 00:05:44;;;;;;;8.07;1.80;;;7.10;99.90;;;;;;5035633;28;20453;-78
2023/12/23 00:08:11;;;;;;;2.90;1.47;;;7.00;99.90;;;;;;5037697;28;20526;-79
2023/12/23 00:10:38;;;;;;;6.10;1.97;;;7.00;99.90;;;;;;5036486;28;20540;-79
2023/12/23 00:13:05;;;;;;;5.27;1.40;;;7.00;99.90;;;;;;5036540;28;20449;-79
2023/12/23 00:15:31;;;;;;;7.30;2.63;;;7.00;99.90;;;;;;5036732;28;20441;-79
2023/12/23 00:18:00;;;;;;;6.67;2.00;;;7.10;99.90;;;;;;5036312;28;20461;-78
2023/12/23 00:20:26;;;;;;;4.23;1.70;;;7.20;99.90;;;;;;5037063;28;20546;-77
2023/12/23 00:22:55;;;;;;;5.13;2.27;;;7.10;99.90;;;;;;5035870;28;20454;-78
2023/12/23 00:25:22;;;;;;;4.90;1.30;;;7.20;99.90;;;;;;5037347;28;20461;-79
2023/12/23 00:27:49;;;;;;;6.07;2.27;;;7.30;99.90;;;;;;5036163;28;20823;-79
2023/12/23 00:30:16;;;;;;;5.90;1.37;;;7.30;99.90;;;;;;5036487;28;20481;-80
2023/12/23 00:32:44;;;;;;;3.63;1.40;;;7.30;99.90;;;;;;5034758;28;20445;-79
2023/12/23 00:35:12;;;;;;;9.80;2.43;;;7.40;99.90;;;;;;5043065;28;20981;-77
2023/12/23 00:37:39;;;;;;;6.03;1.50;;;7.40;99.90;;;;;;5047753;28;20548;-78
2023/12/23 00:40:07;;;;;;;6.23;1.37;;;7.40;99.90;;;;;;5048020;28;20548;-77
2023/12/23 00:42:35;;;;;;;11.87;1.70;;;7.40;99.90;;;;;;5037512;28;20457;-79
2023/12/23 00:45:02;;;;;;;10.60;2.10;;;7.50;99.90;;;;;;5035921;28;20953;-78
2023/12/23 00:47:28;;;;;;;8.10;1.80;;;7.50;99.90;;;;;;5036239;28;20486;-78
2023/12/23 00:49:55;;;;;;;5.67;2.20;;;7.50;99.90;;;;;;5035734;28;20499;-79
2023/12/23 00:52:23;;;;;;;3.13;1.27;;;7.50;99.90;;;;;;5036083;28;20473;-79
2023/12/23 00:54:50;;;;;;;4.47;1.37;;;7.50;99.90;;;;;;5035934;28;20523;-79
2023/12/23 00:57:17;;;;;;;7.80;1.37;;;7.50;99.90;;;;;;5035791;28;20463;-79
2023/12/23 00:59:44;;;;;;;5.17;1.30;;;7.50;99.90;;;;;;5035347;28;20474;-79
2023/12/23 01:02:10;;;;;;;9.93;1.60;;;7.50;99.90;;;;;;5035350;28;20467;-77
2023/12/23 01:04:38;;;;;;;6.43;1.13;;;7.50;99.90;;;;;;5033991;28;20545;-78
2023/12/23 01:07:05;;;;;;;4.00;1.57;;;7.50;99.90;;;;;;5034686;28;20458;-78
2023/12/23 01:09:33;;;;;;;4.70;1.50;;;7.60;99.90;;;;;;5034338;28;20488;-78
2023/12/23 01:12:00;;;;;;;5.27;1.43;;;7.60;99.90;;;;;;5035599;28;20541;-78
2023/12/23 01:14:26;;;;;;;8.80;2.33;;;7.60;99.90;;;;;;5035645;28;20468;-79
2023/12/23 01:16:53;;;;;;;8.60;1.73;;;7.60;99.90;;;;;;5033327;28;20468;-79
2023/12/23 01:19:20;;;;;;;9.00;1.47;;;7.60;99.90;;;;;;5034454;28;20457;-78
2023/12/23 01:21:47;;;;;;;6.43;1.50;;;7.60;99.90;;;;;;5035073;28;20933;-78
2023/12/23 01:24:14;;;;;;;7.50;1.80;;;7.60;99.90;;;;;;5035004;28;20529;-78
2023/12/23 01:26:42;;;;;;;6.33;1.63;;;7.60;99.90;;;;;;5034314;28;20454;-79
2023/12/23 01:29:09;;;;;;;3.93;1.60;;;7.70;99.90;;;;;;5033788;28;20486;-78
2023/12/23 01:31:36;;;;;;;8.13;1.70;;;7.70;99.90;;;;;;5034478;28;20540;-80
2023/12/23 01:34:03;;;;;;;2.57;1.17;;;7.70;99.90;;;;;;5033927;28;20545;-78
2023/12/23 01:36:29;;;;;;;5.17;1.70;;;7.70;99.90;;;;;;5034505;28;20448;-78
2023/12/23 01:38:56;;;;;;;5.77;1.23;;;7.60;99.90;;;;;;5034109;28;20448;-78
2023/12/23 01:41:23;;;;;;;5.33;1.70;;;7.60;99.90;;;;;;5034497;28;20469;-77
2023/12/23 01:43:51;;;;;;;10.80;1.97;;;7.60;99.90;;;;;;5035332;28;20467;-78
2023/12/23 01:46:19;;;;;;;4.17;1.10;;;7.60;99.90;;;;;;5033856;28;20938;-79
2023/12/23 01:48:46;;;;;;;5.27;1.30;;;7.60;99.90;;;;;;5033369;28;20495;-78
2023/12/23 01:51:17;;;;;;;5.83;1.67;;;7.60;99.90;;;;;;5034329;28;20469;-78
2023/12/23 01:53:44;;;;;;;4.57;0.97;;;7.60;99.90;;;;;;5034226;28;20486;-77
2023/12/23 01:56:12;;;;;;;2.83;1.20;;;7.70;99.90;;;;;;5034519;28;21022;-77
2023/12/23 01:58:39;;;;;;;7.10;1.40;;;7.70;99.90;;;;;;5031680;28;20489;-78
2023/12/23 02:01:08;;;;;;;5.10;1.20;;;7.70;99.90;;;;;;5034268;28;21077;-78
2023/12/23 02:03:34;;;;;;;3.87;1.10;;;7.70;99.90;;;;;;5034470;28;20480;-78
2023/12/23 02:06:01;;;;;;;5.13;1.33;;;7.80;99.90;;;;;;5034848;28;20454;-78
2023/12/23 02:08:29;;;;;;;6.63;1.30;;;7.70;99.90;;;;;;5034775;28;20450;-77
2023/12/23 02:11:05;;;;;;;6.67;1.60;;;7.80;99.90;;;;;;5034204;28;20470;-78
2023/12/23 02:13:37;;;;;;;3.83;1.10;;;7.80;99.90;;;;;;5035111;28;20464;-78
2023/12/23 02:16:07;;;;;;;7.63;1.10;;;7.80;99.90;;;;;;5034533;28;20446;-78
2023/12/23 02:18:34;;;;;;;5.40;1.20;;;7.90;99.90;;;;;;5034485;28;20464;-78
2023/12/23 02:21:03;;;;;;;6.83;1.30;;;7.90;99.90;;;;;;5034255;28;21243;-79
2023/12/23 02:23:30;;;;;;;4.93;1.50;;;7.90;99.90;;;;;;5034643;28;20953;-78
2023/12/23 02:26:01;;;;;;;9.70;1.37;;;7.90;99.90;;;;;;5034224;28;20487;-78
2023/12/23 02:28:27;;;;;;;6.77;1.40;;;7.90;99.90;;;;;;5033416;28;20461;-78
2023/12/23 02:30:55;;;;;;;7.97;2.03;;;7.90;99.90;;;;;;5033308;28;20501;-78
2023/12/23 02:33:22;;;;;;;8.50;1.70;;;7.90;99.90;;;;;;5034463;28;20461;-78
2023/12/23 02:35:52;;;;;;;5.37;1.90;;;7.90;99.90;;;;;;5033526;28;20457;-79
2023/12/23 02:38:21;;;;;;;6.93;1.97;;;7.90;99.90;;;;;;5032357;28;20534;-77
2023/12/23 02:40:48;;;;;;;8.47;2.20;;;7.90;99.90;;;;;;5034066;28;20459;-78
2023/12/23 02:43:15;;;;;;;8.00;2.77;;;7.80;99.90;;;;;;5033614;28;20460;-78
2023/12/23 02:45:42;;;;;;;4.53;1.60;;;7.90;99.90;;;;;;5033889;28;20832;-78
2023/12/23 02:48:09;;;;;;;5.90;1.60;;;7.70;99.90;;;;;;5033484;28;20447;-78
2023/12/23 02:50:36;;;;;;;7.60;2.10;;;7.80;99.90;;;;;;5034410;28;20557;-78
2023/12/23 02:53:03;;;;;;;6.80;1.60;;;7.80;99.90;;;;;;5035257;28;20859;-78
2023/12/23 02:55:33;;;;;;;4.63;1.73;;;7.70;99.90;;;;;;5034209;28;20470;-78
2023/12/23 02:58:01;;;;;;;4.90;1.60;;;7.70;99.90;;;;;;5032937;28;20465;-77
2023/12/23 03:00:27;;;;;;;5.93;1.50;;;7.70;99.90;;;;;;5037558;28;21044;-77
2023/12/23 03:02:56;;;;;;;6.60;2.20;;;7.80;99.90;;;;;;5038020;28;20454;-77
2023/12/23 03:05:23;;;;;;;9.07;2.03;;;7.70;99.90;;;;;;5037359;28;20464;-77
2023/12/23 03:07:50;;;;;;;7.40;2.40;;;7.70;99.90;;;;;;5036997;28;20833;-78
2023/12/23 03:10:17;;;;;;;11.33;1.60;;;7.60;99.90;;;;;;5036245;28;20489;-77
2023/12/23 03:12:45;;;;;;;6.90;1.70;;;7.60;99.90;;;;;;5036408;28;20457;-78
2023/12/23 03:15:12;;;;;;;4.23;1.93;;;7.50;99.90;;;;;;5037329;28;20458;-80
2023/12/23 03:17:39;;;;;;;7.90;2.60;;;7.50;99.90;;;;;;5038475;28;20528;-80
2023/12/23 03:20:08;;;;;;;12.67;2.70;;;7.50;99.90;;;;;;5038732;28;20458;-79
2023/12/23 03:22:35;;;;;;;3.50;1.90;;;7.50;99.90;;;;;;5040345;28;20448;-79
2023/12/23 03:25:02;;;;;;;4.30;2.87;;;7.50;99.90;;;;;;5038940;28;20518;-78
2023/12/23 03:27:29;;;;;;;5.37;3.03;;;7.50;99.90;;;;;;5037335;28;20456;-79
2023/12/23 03:29:57;;;;;;;6.27;2.30;;;7.60;99.90;;;;;;5037155;28;20496;-78
2023/12/23 03:32:24;;;;;;;7.50;2.63;;;7.60;99.90;;;;;;5036135;28;20830;-79
2023/12/23 03:34:50;;;;;;;5.03;2.57;;;7.60;99.90;;;;;;5036834;28;20472;-79
2023/12/23 03:37:17;;;;;;;4.57;2.40;;;7.60;99.90;;;;;;5037129;28;20448;-79
2023/12/23 03:39:44;;;;;;;7.23;2.27;;;7.60;99.90;;;;;;5037455;28;20468;-79
2023/12/23 03:42:11;;;;;;;3.87;3.13;;;7.70;99.90;;;;;;5037131;28;20459;-78
2023/12/23 03:44:38;;;;;;;5.57;2.90;;;7.70;99.90;;;;;;5033886;28;20447;-78
2023/12/23 03:47:07;;;;;;;4.87;2.97;;;7.70;99.90;;;;;;5038956;28;20445;-78
2023/12/23 03:49:34;;;;;;;7.60;2.97;;;7.70;99.90;;;;;;5037646;28;20522;-77
2023/12/23 03:52:01;;;;;;;8.73;3.60;;;7.70;99.90;;;;;;5038350;28;20470;-78
2023/12/23 03:54:27;;;;;;;7.73;4.10;;;7.70;99.90;;;;;;5038113;28;20478;-79
2023/12/23 03:56:54;;;;;;;11.80;4.63;;;7.70;99.90;;;;;;5037393;28;20969;-79
2023/12/23 03:59:21;;;;;;;7.00;4.70;;;7.70;99.90;;;;;;5037776;28;20445;-80
2023/12/23 04:01:48;;;;;;;13.53;6.20;;;7.70;99.90;;;;;;5036502;28;20461;-79
2023/12/23 04:04:16;;;;;;;11.53;6.70;;;7.70;99.90;;;;;;5038018;28;20803;-78
2023/12/23 04:06:43;;;;;;;11.23;7.40;;;7.70;99.90;;;;;;5036991;28;20464;-79
2023/12/23 04:09:10;;;;;;;10.80;8.10;;;7.70;99.90;;;;;;5037394;28;20446;-78
2023/12/23 04:11:37;;;;;;;12.80;8.23;;;7.80;99.90;;;;;;5036167;28;20456;-79
2023/12/23 04:14:03;;;;;;;13.33;7.70;;;7.90;99.90;;;;;;5035558;28;20465;-79
2023/12/23 04:16:30;;;;;;;8.40;7.50;;;7.90;99.90;;;;;;5036927;28;20456;-78
2023/12/23 04:18:57;;;;;;;12.43;8.30;;;8.00;99.90;;;;;;5036606;28;20475;-79
2023/12/23 04:21:25;;;;;;;12.07;7.07;;;8.10;99.90;;;;;;5047358;28;20472;-77
2023/12/23 04:23:52;;;;;;;9.90;7.80;;;8.10;99.90;;;;;;5050985;28;20451;-78
2023/12/23 04:26:19;;;;;;;14.13;7.57;;;8.20;99.90;;;;;;5051653;28;20822;-78
2023/12/23 04:28:45;;;;;;;13.43;7.07;;;8.20;99.90;;;;;;5038399;28;20453;-79
2023/12/23 04:31:12;;;;;;;9.40;7.37;;;8.20;99.90;;;;;;5035225;28;20873;-79
2023/12/23 04:33:39;;;;;;;14.30;6.83;;;8.20;99.90;;;;;;5036204;28;20458;-79
2023/12/23 04:36:07;;;;;;;14.80;7.37;;;8.30;99.90;;;;;;5036152;28;20447;-75
2023/12/23 04:38:36;;;;;;;15.47;6.93;;;8.30;99.90;;;;;;5036086;28;20450;-79
2023/12/23 04:41:02;;;;;;;9.10;6.20;;;8.30;99.90;;;;;;5036404;28;20870;-79
2023/12/23 04:43:30;;;;;;;13.00;6.60;;;8.40;99.90;;;;;;5035550;28;20465;-79
2023/12/23 04:45:57;;;;;;;10.50;6.10;;;8.40;99.90;;;;;;5036512;28;20967;-80
2023/12/23 04:48:25;;;;;;;11.60;7.17;;;8.40;99.90;;;;;;5037097;28;20446;-77
2023/12/23 04:50:52;;;;;;;18.03;7.33;;;8.40;99.90;;;;;;5035437;28;20917;-80
2023/12/23 04:53:22;;;;;;;15.20;7.07;;;8.40;99.90;;;;;;5036669;28;20451;-79
2023/12/23 04:55:51;;;;;;;13.13;7.93;;;8.40;99.90;;;;;;5036608;28;20465;-79
2023/12/23 04:58:18;;;;;;;18.07;7.63;;;8.50;99.90;;;;;;5035662;28;20966;-79
2023/12/23 05:00:44;;;;;;;15.10;8.17;;;8.50;99.90;;;;;;5040424;28;20463;-79
2023/12/23 05:03:11;;;;;;;19.67;7.77;;;8.50;99.90;;;;;;5036819;28;20459;-80
2023/12/23 05:05:40;;;;;;;12.67;7.03;;;8.50;99.90;;;;;;5037811;28;20459;-79
2023/12/23 05:08:07;;;;;;;11.43;6.80;;;8.50;99.90;;;;;;5036176;28;20454;-80
2023/12/23 05:10:34;;;;;;;13.10;6.27;;;8.50;99.90;;;;;;5036350;28;20489;-80
2023/12/23 05:13:03;;;;;;;9.30;5.60;;;8.50;99.90;;;;;;5036184;28;20522;-80
2023/12/23 05:15:29;;;;;;;9.53;6.13;;;8.50;99.90;;;;;;5037115;28;20464;-77
2023/12/23 05:17:56;;;;;;;12.93;6.33;;;8.60;99.90;;;;;;5036429;28;20981;-79
2023/12/23 05:20:23;;;;;;;12.63;6.63;;;8.60;99.90;;;;;;5036841;28;20819;-79
2023/12/23 05:22:50;;;;;;;16.70;7.87;;;8.60;99.90;;;;;;5037751;28;20836;-78
2023/12/23 05:25:16;;;;;;;9.33;6.20;;;8.60;99.90;;;;;;5036716;28;20451;-78
2023/12/23 05:27:43;;;;;;;13.50;7.23;;;8.60;99.90;;;;;;5036169;28;20467;-78
2023/12/23 05:30:13;;;;;;;12.10;6.73;;;8.60;99.90;;;;;;5036595;28;20486;-78
2023/12/23 05:32:39;;;;;;;14.30;7.80;;;8.60;99.90;;;;;;5035846;28;20569;-77
2023/12/23 05:35:07;;;;;;;18.93;8.60;;;8.60;99.90;;;;;;5035950;28;20492;-77
2023/12/23 05:37:34;;;;;;;16.87;9.30;;;8.60;99.90;;;;;;5036647;28;20458;-79
2023/12/23 05:40:01;;;;;;;9.77;6.77;;;8.60;99.90;;;;;;5036787;28;20486;-79
2023/12/23 05:42:28;;;;;;;10.93;7.40;;;8.60;99.90;;;;;;5035429;28;20447;-80
2023/12/23 05:44:55;;;;;;;17.03;7.43;;;8.60;99.90;;;;;;5037291;28;20462;-78
2023/12/23 05:47:23;;;;;;;13.43;8.00;;;8.60;99.90;;;;;;5037101;28;20455;-78
2023/12/23 05:49:50;;;;;;;13.83;7.67;;;8.60;99.90;;;;;;5036619;28;20483;-81
2023/12/23 05:52:16;;;;;;;15.13;7.53;;;8.50;99.90;;;;;;5036744;28;20461;-80
2023/12/23 05:54:43;;;;;;;10.63;6.40;;;8.60;99.90;;;;;;5038452;28;20462;-79
2023/12/23 05:57:10;;;;;;;15.07;6.90;;;8.50;99.90;;;;;;5036745;28;20462;-79
2023/12/23 05:59:37;;;;;;;14.40;7.53;;;8.50;99.90;;;;;;5036268;28;20593;-80
2023/12/23 06:02:04;;;;;;;12.07;6.43;;;8.50;99.90;;;;;;5037381;28;20457;-79
2023/12/23 06:04:32;;;;;;;12.13;6.60;;;8.50;99.90;;;;;;5037301;28;20465;-79
2023/12/23 06:06:59;;;;;;;11.57;7.10;;;8.50;99.90;;;;;;5036621;28;21216;-78
2023/12/23 06:09:26;;;;;;;8.00;5.93;;;8.50;99.90;;;;;;5036098;28;20482;-78
2023/12/23 06:11:53;;;;;;;7.60;6.43;;;8.50;99.90;;;;;;5036326;28;20496;-78
2023/12/23 06:14:19;;;;;;;23.43;9.53;;;8.50;99.90;;;;;;5035606;28;20476;-78
2023/12/23 06:16:46;;;;;;;59.17;30.13;;;8.50;99.90;;;;;;5035577;28;20451;-79
2023/12/23 06:19:13;;;;;;;30.50;14.67;;;8.50;99.90;;;;;;5035648;28;20454;-78
2023/12/23 06:21:45;;;;;;;13.50;6.47;;;8.50;99.90;;;;;;5035119;28;20463;-78
2023/12/23 06:24:12;;;;;;;8.20;6.10;;;8.50;99.90;;;;;;5031619;28;20547;-77
2023/12/23 06:26:39;;;;;;;8.73;6.00;;;8.60;99.90;;;;;;5037217;28;20468;-78
2023/12/23 06:29:09;;;;;;;10.10;4.87;;;8.50;99.90;;;;;;5035899;28;20545;-79
2023/12/23 06:31:36;;;;;;;17.03;6.43;;;8.50;99.90;;;;;;5036781;28;20515;-78
2023/12/23 06:34:03;;;;;;;14.87;5.70;;;8.50;99.90;;;;;;5038968;28;20467;-77
2023/12/23 06:36:31;;;;;;;10.00;5.00;;;8.50;99.90;;;;;;5042097;28;20469;-78
2023/12/23 06:38:59;;;;;;;10.00;5.40;;;8.60;99.90;;;;;;5041634;28;20964;-77
2023/12/23 06:41:26;;;;;;;14.60;9.93;;;8.60;99.90;;;;;;5042510;28;20480;-79
2023/12/23 06:43:53;;;;;;;5.40;4.37;;;8.50;99.90;;;;;;5042707;28;20455;-80
2023/12/23 06:46:19;;;;;;;10.17;5.70;;;8.60;99.90;;;;;;5044185;28;20840;-79
2023/12/23 06:48:46;;;;;;;8.63;5.60;;;8.50;99.90;;;;;;5045052;28;20901;-79
2023/12/23 06:51:13;;;;;;;15.00;6.80;;;8.60;99.90;;;;;;5044708;28;20547;-77
2023/12/23 06:53:40;;;;;;;16.70;6.40;;;8.60;99.90;;;;;;5045661;28;20457;-79
2023/12/23 06:56:08;;;;;;;9.27;5.87;;;8.60;99.90;;;;;;5043618;28;20542;-78
2023/12/23 06:58:38;;;;;;;10.90;5.17;;;8.60;99.90;;;;;;5043622;28;20466;-80
2023/12/23 07:01:05;;;;;;;12.30;6.00;;;8.60;99.90;;;;;;5036892;28;20802;-81
2023/12/23 07:03:32;;;;;;;10.57;6.93;;;8.60;99.90;;;;;;5045320;28;20470;-80
2023/12/23 07:05:59;;;;;;;15.03;7.00;;;8.50;99.90;;;;;;5045355;28;20451;-78
2023/12/23 07:08:26;;;;;;;11.00;5.63;;;8.60;99.90;;;;;;5045679;28;20523;-78
2023/12/23 07:10:53;;;;;;;8.50;5.70;;;8.50;99.90;;;;;;5044223;28;20498;-79
2023/12/23 07:13:22;;;;;;;7.70;5.10;;;8.60;99.90;;;;;;5045237;28;20549;-78
2023/12/23 07:15:49;;;;;;;12.20;6.10;;;8.60;99.90;;;;;;5044481;28;20537;-77
2023/12/23 07:18:16;;;;;;;10.30;5.30;;;8.50;99.90;;;;;;5044560;28;20461;-79
2023/12/23 07:20:43;;;;;;;11.90;5.47;;;8.50;99.90;;;;;;5043316;28;20560;-81
2023/12/23 07:23:10;;;;;;;9.53;6.40;;;8.60;99.90;;;;;;5044455;28;20463;-80
2023/12/23 07:25:37;;;;;;;18.03;6.67;;;8.60;99.90;;;;;;5044513;28;20455;-79
2023/12/23 07:28:04;;;;;;;14.37;5.97;;;8.60;99.90;;;;;;5044917;28;20559;-80
2023/12/23 07:30:32;;;;;;;14.90;5.43;;;8.60;99.90;;;;;;5045056;28;20576;-80
2023/12/23 07:32:59;;;;;;;7.03;4.57;;;8.60;99.90;;;;;;5044821;28;22392;-80
2023/12/23 07:35:28;;;;;;;10.73;5.17;;;8.60;99.90;;;;;;5043939;28;20542;-79
2023/12/23 07:37:54;;;;;;;7.70;5.03;;;8.60;99.90;;;;;;5044518;28;20474;-79
2023/12/23 07:40:21;;;;;;;9.40;4.10;;;8.60;99.90;;;;;;5042359;28;20848;-79
2023/12/23 07:42:48;;;;;;;13.47;5.10;;;8.60;99.90;;;;;;5050003;28;20452;-79
2023/12/23 07:45:15;;;;;;;9.57;4.17;;;8.70;99.90;;;;;;5049378;28;20893;-80
2023/12/23 07:47:44;;;;;;;6.60;4.30;;;8.70;99.90;;;;;;5041090;28;20541;-79
2023/12/23 07:50:11;;;;;;;12.13;4.80;;;8.70;99.90;;;;;;5035621;28;20479;-80
2023/12/23 07:52:39;;;;;;;16.27;5.03;;;8.70;99.90;;;;;;5046553;28;20450;-80
2023/12/23 07:55:07;;;;;;;9.53;4.80;;;8.70;99.90;;;;;;5048048;28;20485;-78
2023/12/23 07:57:34;;;;;;;6.87;3.40;;;8.70;99.90;;;;;;5040457;28;20462;-77
2023/12/23 08:00:00;;;;;;;7.63;4.87;;;8.70;99.90;;;;;;5046575;28;20538;-77
2023/12/23 08:02:27;;;;;;;9.23;4.33;;;8.70;99.90;;;;;;5042797;28;21017;-78
2023/12/23 08:04:56;;;;;;;9.00;4.83;;;8.70;99.90;;;;;;5044896;28;20455;-77
2023/12/23 08:07:23;;;;;;;6.90;3.57;;;8.70;99.90;;;;;;5041637;28;20443;-77
2023/12/23 08:09:50;;;;;;;11.13;4.17;;;8.70;99.90;;;;;;5043934;28;20545;-77
2023/12/23 08:12:17;;;;;;;11.60;4.50;;;8.70;99.90;;;;;;5047085;28;20519;-76
2023/12/23 08:14:44;;;;;;;12.97;4.90;;;8.70;99.90;;;;;;5046168;28;20510;-77
2023/12/23 08:17:11;;;;;;;11.00;4.63;;;8.70;99.90;;;;;;5046772;28;20454;-77
2023/12/23 08:19:38;;;;;;;10.10;4.20;;;8.70;99.90;;;;;;5038488;28;20537;-77
2023/12/23 08:22:06;;;;;;;12.00;5.20;;;8.80;99.90;;;;;;5046090;28;20486;-77
2023/12/23 08:24:33;;;;;;;16.70;6.57;;;8.70;99.90;;;;;;5043227;28;20455;-77
2023/12/23 08:27:01;;;;;;;7.70;4.77;;;8.70;99.90;;;;;;5042719;28;20454;-78
2023/12/23 08:29:27;;;;;;;10.63;6.00;;;8.80;99.90;;;;;;5043681;28;20493;-77
2023/12/23 08:31:54;;;;;;;9.33;4.50;;;8.80;99.90;;;;;;5042650;28;20575;-77
2023/12/23 08:34:21;;;;;;;13.03;5.00;;;8.80;99.90;;;;;;5041820;28;20470;-77
2023/12/23 08:36:49;;;;;;;11.10;5.57;;;8.80;99.90;;;;;;5040046;28;20913;-77
2023/12/23 08:39:17;;;;;;;14.23;4.77;;;8.80;99.90;;;;;;5040156;28;20463;-77
2023/12/23 08:41:44;;;;;;;8.13;4.40;;;8.80;99.90;;;;;;5043437;28;20491;-77
2023/12/23 08:44:11;;;;;;;12.87;6.10;;;8.90;99.90;;;;;;5042601;28;20461;-77
2023/12/23 08:46:37;;;;;;;8.30;4.33;;;8.80;99.90;;;;;;5041378;28;20487;-78
2023/12/23 08:49:04;;;;;;;9.60;4.47;;;8.80;99.90;;;;;;5042530;28;20520;-77
2023/12/23 08:51:34;;;;;;;12.93;4.40;;;8.90;99.90;;;;;;5041871;28;20494;-77
2023/12/23 08:54:01;;;;;;;11.23;4.93;;;8.90;99.90;;;;;;5040480;28;20468;-77
2023/12/23 08:56:29;;;;;;;11.03;4.63;;;8.90;99.90;;;;;;5040210;28;20521;-77
2023/12/23 08:58:56;;;;;;;9.30;4.40;;;8.90;99.90;;;;;;5035740;28;20456;-77
2023/12/23 09:01:23;;;;;;;12.30;5.07;;;8.90;99.90;;;;;;5042698;28;20487;-77
2023/12/23 09:03:50;;;;;;;11.30;4.30;;;8.90;99.90;;;;;;5041125;28;20470;-78
2023/12/23 09:06:17;;;;;;;13.97;5.30;;;8.80;99.90;;;;;;5040549;28;20454;-77
2023/12/23 09:08:44;;;;;;;13.70;4.33;;;8.90;99.90;;;;;;5040006;28;20466;-77
2023/12/23 09:11:11;;;;;;;7.13;3.37;;;8.90;99.90;;;;;;5035639;28;20925;-77
2023/12/23 09:13:39;;;;;;;14.17;5.03;;;8.90;99.90;;;;;;5044120;28;20461;-79
2023/12/23 09:16:06;;;;;;;11.00;4.27;;;8.90;99.90;;;;;;5040181;28;20462;-79
2023/12/23 09:18:33;;;;;;;14.73;4.00;;;8.90;99.90;;;;;;5041174;28;20535;-78
2023/12/23 09:21:00;;;;;;;11.17;4.00;;;8.90;99.90;;;;;;5039586;28;20976;-78
2023/12/23 09:23:27;;;;;;;10.20;4.07;;;9.00;99.90;;;;;;5038627;28;20537;-79
2023/12/23 09:25:54;;;;;;;5.50;3.70;;;9.00;99.90;;;;;;5038519;28;20472;-78
2023/12/23 09:28:21;;;;;;;8.00;3.20;;;9.00;99.90;;;;;;5038299;28;20982;-78
2023/12/23 09:30:49;;;;;;;9.60;3.40;;;9.00;99.90;;;;;;5037436;28;20501;-79
2023/12/23 09:33:16;;;;;;;7.10;3.63;;;9.00;99.90;;;;;;5038324;28;20467;-78
2023/12/23 09:35:43;;;;;;;14.47;4.80;;;9.00;99.90;;;;;;5037264;28;20474;-78
2023/12/23 09:38:10;;;;;;;12.77;4.33;;;9.00;99.90;;;;;;5038654;28;20567;-79
2023/12/23 09:40:38;;;;;;;11.77;3.60;;;9.00;99.90;;;;;;5038593;28;20483;-77
2023/12/23 09:43:05;;;;;;;7.60;3.20;;;9.00;99.90;;;;;;5038511;28;20446;-79
2023/12/23 09:45:34;;;;;;;13.50;3.50;;;9.10;99.90;;;;;;5039582;28;20877;-79
2023/12/23 09:48:02;;;;;;;13.43;3.70;;;9.10;99.90;;;;;;5040268;28;20458;-78
2023/12/23 09:50:29;;;;;;;12.33;3.43;;;9.10;99.90;;;;;;5039974;28;20554;-78
2023/12/23 09:53:00;;;;;;;13.70;3.27;;;9.10;99.90;;;;;;5037576;28;20488;-79
2023/12/23 09:55:27;;;;;;;16.93;4.40;;;9.10;99.90;;;;;;5038489;28;20460;-78
2023/12/23 09:57:54;;;;;;;10.20;3.37;;;9.10;99.90;;;;;;5038627;28;20458;-78
2023/12/23 10:00:22;;;;;;;14.80;3.50;;;9.10;99.90;;;;;;5038933;28;20512;-79
2023/12/23 10:02:48;;;;;;;12.30;3.00;;;9.10;99.90;;;;;;5039017;28;20480;-78
2023/12/23 10:05:18;;;;;;;10.50;3.10;;;9.10;99.90;;;;;;5040390;28;20898;-79
2023/12/23 10:07:44;;;;;;;6.57;2.60;;;9.10;99.90;;;;;;5038515;28;20455;-78
2023/12/23 10:10:12;;;;;;;7.60;2.50;;;9.10;99.90;;;;;;5039090;28;20515;-78
2023/12/23 10:12:39;;;;;;;7.00;3.13;;;9.10;99.90;;;;;;5032067;28;20482;-78
2023/12/23 10:15:06;;;;;;;11.50;2.83;;;9.10;99.90;;;;;;5038484;28;20444;-78
2023/12/23 10:17:54;;;;;;;7.73;2.60;;;9.10;99.90;;;;;;5044370;28;20453;-80
2023/12/23 10:20:22;;;;;;;6.03;2.10;;;9.10;99.90;;;;;;5034348;28;20505;-79
2023/12/23 10:22:52;;;;;;;8.23;2.77;;;9.10;99.90;;;;;;5036272;28;20541;-80
2023/12/23 10:25:20;;;;;;;10.23;3.20;;;9.10;99.90;;;;;;5041699;28;20476;-78
2023/12/23 10:27:54;;;;;;;4.03;2.20;;;9.10;99.90;;;;;;5041711;28;20543;-78
2023/12/23 10:30:24;;;;;;;8.37;3.17;;;9.10;99.90;;;;;;5040837;28;20478;-80
2023/12/23 10:33:00;;;;;;;8.13;3.90;;;9.10;99.90;;;;;;5039976;28;20582;-77
2023/12/23 10:35:30;;;;;;;8.70;3.27;;;9.10;99.90;;;;;;5039581;28;20974;-78
2023/12/23 10:38:01;;;;;;;11.93;2.93;;;9.10;99.90;;;;;;5038913;28;20535;-79
2023/12/23 10:40:32;;;;;;;5.97;2.73;;;9.10;99.90;;;;;;5038469;28;20508;-79
2023/12/23 10:43:01;;;;;;;11.90;3.83;;;9.10;99.90;;;;;;5036307;28;20504;-79
2023/12/23 10:45:28;;;;;;;7.50;3.20;;;9.10;99.90;;;;;;5039314;28;20463;-78
2023/12/23 10:47:57;;;;;;;7.63;3.40;;;9.10;99.90;;;;;;5039274;28;20486;-78
2023/12/23 10:50:24;;;;;;;10.97;4.00;;;9.10;99.90;;;;;;5037451;28;20485;-78
2023/12/23 10:52:53;;;;;;;13.40;4.40;;;9.20;99.90;;;;;;5030546;28;20494;-78
2023/12/23 10:55:23;;;;;;;7.53;4.40;;;9.10;99.90;;;;;;5037569;28;20486;-79
2023/12/23 10:57:52;;;;;;;8.53;4.47;;;9.10;99.90;;;;;;5041179;28;20481;-78
2023/12/23 11:00:19;;;;;;;8.83;4.17;;;9.20;99.90;;;;;;5038726;28;20556;-81
2023/12/23 11:02:50;;;;;;;5.70;4.07;;;9.10;99.90;;;;;;5036591;28;20549;-79
2023/12/23 11:05:19;;;;;;;10.23;4.80;;;9.10;99.90;;;;;;5040788;28;20528;-78
2023/12/23 11:07:49;;;;;;;12.47;4.53;;;9.20;99.90;;;;;;5036002;28;20470;-78
2023/12/23 11:10:16;;;;;;;12.10;5.97;;;9.20;99.90;;;;;;5038125;28;21268;-79
2023/12/23 11:12:44;;;;;;;9.63;5.10;;;9.20;99.90;;;;;;5038314;28;21029;-78
2023/12/23 11:15:13;;;;;;;10.90;5.80;;;9.20;99.90;;;;;;5039510;28;20462;-78
2023/12/23 11:17:43;;;;;;;8.70;5.57;;;9.20;99.90;;;;;;5035465;28;20939;-78
2023/12/23 11:20:47;;;;;;;6.60;5.03;;;9.20;99.90;;;;;;5039981;28;20534;-79
2023/12/23 11:23:34;;;;;;;11.70;5.57;;;9.20;99.90;;;;;;5041095;28;20486;-79
2023/12/23 11:26:03;;;;;;;9.27;6.00;;;9.20;99.90;;;;;;5042834;28;20956;-78
2023/12/23 11:28:31;;;;;;;7.77;4.90;;;9.10;99.90;;;;;;5042409;28;20535;-79
2023/12/23 11:31:07;;;;;;;17.90;5.90;;;9.20;99.90;;;;;;5045157;28;20546;-78
2023/12/23 11:33:36;;;;;;;10.17;4.73;;;9.20;99.90;;;;;;5042535;28;20487;-79
2023/12/23 11:36:03;;;;;;;10.30;4.47;;;9.10;99.90;;;;;;5041835;28;20470;-79
2023/12/23 11:38:45;;;;;;;6.80;3.70;;;9.10;99.90;;;;;;5038042;28;20485;-79
2023/12/23 11:41:13;;;;;;;7.33;3.93;;;9.10;99.90;;;;;;5042659;28;20509;-79
2023/12/23 11:43:43;;;;;;;7.73;3.90;;;9.10;99.90;;;;;;5040766;28;20549;-77
2023/12/23 11:46:10;;;;;;;6.23;3.53;;;9.10;99.90;;;;;;5039366;28;21004;-80
2023/12/23 11:48:37;;;;;;;9.57;3.60;;;9.10;99.90;;;;;;5042430;28;20449;-79
2023/12/23 11:51:06;;;;;;;12.77;5.00;;;9.20;99.90;;;;;;5040863;28;21085;-78
2023/12/23 11:53:34;;;;;;;10.20;3.40;;;9.20;99.90;;;;;;5043689;28;20538;-79
2023/12/23 11:56:01;;;;;;;9.07;3.70;;;9.20;99.90;;;;;;5024963;28;20540;-78
2023/12/23 11:58:31;;;;;;;8.70;3.60;;;9.20;99.90;;;;;;5040581;28;20538;-77
2023/12/23 12:00:59;;;;;;;5.93;3.37;;;9.20;99.90;;;;;;5042318;28;20490;-78
2023/12/23 12:03:29;;;;;;;8.83;3.10;;;9.20;99.90;;;;;;5041943;28;20454;-77
2023/12/23 12:05:57;;;;;;;11.67;5.60;;;9.20;99.90;;;;;;5042692;28;20488;-78
2023/12/23 12:08:24;;;;;;;8.80;3.50;;;9.20;99.90;;;;;;5042795;28;20458;-78
2023/12/23 12:10:52;;;;;;;6.97;3.40;;;9.20;99.90;;;;;;5041792;28;20506;-78
2023/12/23 12:13:18;;;;;;;10.47;3.37;;;9.20;99.90;;;;;;5042960;28;20562;-77
2023/12/23 12:15:47;;;;;;;11.43;3.10;;;9.10;99.90;;;;;;5045477;28;20459;-77
2023/12/23 12:18:13;;;;;;;8.43;3.53;;;9.10;99.90;;;;;;5042082;28;20470;-78
2023/12/23 12:20:40;;;;;;;13.20;5.03;;;9.20;99.90;;;;;;5035588;28;20482;-77
2023/12/23 12:23:07;;;;;;;6.87;4.13;;;9.20;99.90;;;;;;5043754;28;20555;-77
2023/12/23 12:25:34;;;;;;;9.07;3.43;;;9.20;99.90;;;;;;5041184;28;20460;-78
2023/12/23 12:28:01;;;;;;;10.87;3.33;;;9.20;99.90;;;;;;5042342;28;20458;-79
2023/12/23 12:30:28;;;;;;;4.80;2.80;;;9.20;99.90;;;;;;5041709;28;20510;-77
2023/12/23 12:32:58;;;;;;;6.93;2.70;;;9.20;99.90;;;;;;5027675;28;20499;-79
2023/12/23 12:35:25;;;;;;;8.37;3.00;;;9.20;99.90;;;;;;5046178;28;20460;-79
2023/12/23 12:37:52;;;;;;;14.30;4.33;;;9.10;99.90;;;;;;5044520;28;20546;-79
2023/12/23 12:40:19;;;;;;;7.97;2.80;;;9.10;99.90;;;;;;5047446;28;20486;-78
2023/12/23 12:42:50;;;;;;;7.40;3.33;;;9.20;99.90;;;;;;5046974;28;20525;-78
2023/12/23 12:45:17;;;;;;;8.47;3.87;;;9.20;99.90;;;;;;5048143;28;20467;-79
2023/12/23 12:47:44;;;;;;;8.73;3.13;;;9.20;99.90;;;;;;5046869;28;21009;-78
2023/12/23 12:50:13;;;;;;;10.67;3.07;;;9.10;99.90;;;;;;5045524;28;20471;-78
2023/12/23 12:52:40;;;;;;;6.77;3.30;;;9.10;99.90;;;;;;5045420;28;20491;-78
2023/12/23 12:55:07;;;;;;;7.93;3.50;;;9.20;99.90;;;;;;5038049;28;20487;-79